createdAt,value
2022-07-31T00:00:25.536Z,93.30
2022-07-31T00:02:52.572Z,93.20
2022-07-31T00:05:19.569Z,93.40
2022-07-31T00:07:46.818Z,93.70
2022-07-31T00:10:13.820Z,93.80
2022-07-31T00:12:40.883Z,93.90
2022-07-31T00:15:12.544Z,94.40
2022-07-31T00:17:40.762Z,94.50
2022-07-31T00:20:09.522Z,94.60
2022-07-31T00:22:36.514Z,94.80
2022-07-31T00:25:03.848Z,94.50
2022-07-31T00:27:30.908Z,94.80
2022-07-31T00:29:57.922Z,95.50
2022-07-31T00:32:24.957Z,96.00
2022-07-31T00:34:52.074Z,96.20
2022-07-31T00:37:19.047Z,96.60
2022-07-31T00:39:46.014Z,97.00
2022-07-31T00:42:25.007Z,97.70
2022-07-31T00:44:52.537Z,98.40
2022-07-31T00:47:23.921Z,98.40
2022-07-31T00:49:52.676Z,98.40
2022-07-31T00:52:20.021Z,98.40
2022-07-31T00:54:46.999Z,98.80
2022-07-31T00:57:15.363Z,99.30
2022-07-31T00:59:43.677Z,99.40
2022-07-31T01:02:11.210Z,99.70
2022-07-31T01:04:41.575Z,99.60
2022-07-31T01:07:09.326Z,99.40
2022-07-31T01:09:36.426Z,98.90
2022-07-31T01:12:15.478Z,98.90
2022-07-31T01:14:49.640Z,99.10
2022-07-31T01:17:19.567Z,99.40
2022-07-31T01:19:49.854Z,99.90
2022-07-31T01:22:46.923Z,99.90
2022-07-31T01:25:47.564Z,99.90
2022-07-31T01:28:43.698Z,99.90
2022-07-31T01:31:26.757Z,99.90
2022-07-31T01:34:08.340Z,99.90
2022-07-31T01:36:42.675Z,99.90
2022-07-31T01:39:10.052Z,99.90
2022-07-31T01:41:43.568Z,99.90
2022-07-31T01:44:14.203Z,99.90
2022-07-31T01:46:43.687Z,99.90
2022-07-31T01:49:12.199Z,99.90
2022-07-31T01:51:41.823Z,99.90
2022-07-31T01:54:10.678Z,99.90
2022-07-31T01:56:39.042Z,99.90
2022-07-31T01:59:20.484Z,99.90
2022-07-31T02:01:51.541Z,99.90
2022-07-31T02:04:20.826Z,99.90
2022-07-31T02:06:50.091Z,99.90
2022-07-31T02:09:20.167Z,99.90
2022-07-31T02:11:54.370Z,99.90
2022-07-31T02:14:23.091Z,99.90
2022-07-31T02:16:50.387Z,99.90
2022-07-31T02:19:19.265Z,99.90
2022-07-31T02:21:46.427Z,99.90
2022-07-31T02:24:14.023Z,99.90
2022-07-31T02:26:41.444Z,99.90
2022-07-31T02:29:19.863Z,99.90
2022-07-31T02:32:02.993Z,99.90
2022-07-31T02:34:37.618Z,99.90
2022-07-31T02:37:06.248Z,99.90
2022-07-31T02:39:35.003Z,99.90
2022-07-31T02:42:03.751Z,99.90
2022-07-31T02:44:34.750Z,99.90
2022-07-31T02:47:05.845Z,99.90
2022-07-31T02:49:34.051Z,99.90
2022-07-31T02:52:01.752Z,99.90
2022-07-31T02:54:28.877Z,99.90
2022-07-31T02:56:56.502Z,99.90
2022-07-31T02:59:23.908Z,99.90
2022-07-31T03:01:51.036Z,99.90
2022-07-31T03:04:18.067Z,99.90
2022-07-31T03:06:45.093Z,99.90
2022-07-31T03:09:12.276Z,99.90
2022-07-31T03:11:39.320Z,99.90
2022-07-31T03:14:08.684Z,99.90
2022-07-31T03:16:36.766Z,99.90
2022-07-31T03:19:05.767Z,99.90
2022-07-31T03:21:33.138Z,99.90
2022-07-31T03:24:01.770Z,99.90
2022-07-31T03:26:30.598Z,99.90
2022-07-31T03:29:00.760Z,99.90
2022-07-31T03:31:28.027Z,99.90
2022-07-31T03:33:55.011Z,99.90
2022-07-31T03:36:22.355Z,99.90
2022-07-31T03:38:50.754Z,99.90
2022-07-31T03:41:17.953Z,99.90
2022-07-31T03:43:47.962Z,99.90
2022-07-31T03:46:22.524Z,99.90
2022-07-31T03:48:52.546Z,99.90
2022-07-31T03:51:20.423Z,99.90
2022-07-31T03:53:48.995Z,99.90
2022-07-31T03:56:17.270Z,99.90
2022-07-31T03:58:48.028Z,99.90
2022-07-31T04:01:21.459Z,99.90
2022-07-31T04:03:48.962Z,99.90
2022-07-31T04:06:15.879Z,99.90
2022-07-31T04:08:42.793Z,99.90
2022-07-31T04:11:09.808Z,99.90
2022-07-31T04:13:37.820Z,99.90
2022-07-31T04:16:05.080Z,99.90
2022-07-31T04:18:32.018Z,99.90
2022-07-31T04:20:58.971Z,99.90
2022-07-31T04:23:32.380Z,99.90
2022-07-31T04:25:59.855Z,99.90
2022-07-31T04:28:26.851Z,99.90
2022-07-31T04:30:53.979Z,99.90
2022-07-31T04:33:21.093Z,99.90
2022-07-31T04:35:48.156Z,99.90
2022-07-31T04:38:16.978Z,99.90
2022-07-31T04:40:44.352Z,99.90
2022-07-31T04:43:12.747Z,99.90
2022-07-31T04:45:39.738Z,99.90
2022-07-31T04:48:07.012Z,99.90
2022-07-31T04:50:34.040Z,99.90
2022-07-31T04:53:00.963Z,99.90
2022-07-31T04:55:27.862Z,99.90
2022-07-31T04:57:54.814Z,99.90
2022-07-31T05:00:22.729Z,99.90
2022-07-31T05:02:49.893Z,99.90
2022-07-31T05:05:18.379Z,99.90
2022-07-31T05:07:45.541Z,99.90
2022-07-31T05:10:32.482Z,99.90
2022-07-31T05:13:00.589Z,99.90
2022-07-31T05:15:27.967Z,99.90
2022-07-31T05:17:54.925Z,99.90
2022-07-31T05:20:23.635Z,99.90
2022-07-31T05:22:53.135Z,99.90
2022-07-31T05:25:21.347Z,99.90
2022-07-31T05:27:49.958Z,99.90
2022-07-31T05:30:17.081Z,99.90
2022-07-31T05:32:58.540Z,99.90
2022-07-31T05:35:26.623Z,99.90
2022-07-31T05:37:53.584Z,99.90
2022-07-31T05:40:20.747Z,99.90
2022-07-31T05:42:47.892Z,99.90
2022-07-31T05:45:14.845Z,99.90
2022-07-31T05:47:41.854Z,99.90
2022-07-31T05:50:09.915Z,99.90
2022-07-31T05:52:37.101Z,99.90
2022-07-31T05:55:05.202Z,99.90
2022-07-31T05:57:34.197Z,99.90
2022-07-31T06:00:03.735Z,99.90
2022-07-31T06:02:31.406Z,99.90
2022-07-31T06:04:58.400Z,99.90
2022-07-31T06:07:25.517Z,99.90
2022-07-31T06:09:52.813Z,99.90
2022-07-31T06:12:19.967Z,99.90
2022-07-31T06:14:47.042Z,99.90
2022-07-31T06:17:14.344Z,99.90
2022-07-31T06:19:41.449Z,99.90
2022-07-31T06:22:08.923Z,99.90
2022-07-31T06:24:38.390Z,99.90
2022-07-31T06:27:11.373Z,99.90
2022-07-31T06:29:50.320Z,99.90
2022-07-31T06:32:17.334Z,99.90
2022-07-31T06:34:44.971Z,99.90
2022-07-31T06:37:12.185Z,99.90
2022-07-31T06:39:55.895Z,99.90
2022-07-31T06:42:25.275Z,99.90
2022-07-31T06:44:53.627Z,99.90
2022-07-31T06:47:27.006Z,99.90
2022-07-31T06:49:55.103Z,99.90
2022-07-31T06:52:22.384Z,99.90
2022-07-31T06:54:49.785Z,99.90
2022-07-31T06:57:16.962Z,99.90
2022-07-31T06:59:44.080Z,99.90
2022-07-31T07:02:11.096Z,99.90
2022-07-31T07:04:58.489Z,99.90
2022-07-31T07:07:25.218Z,99.90
2022-07-31T07:09:59.371Z,99.90
2022-07-31T07:12:26.926Z,99.90
2022-07-31T07:14:55.411Z,99.90
2022-07-31T07:17:27.178Z,99.90
2022-07-31T07:19:55.947Z,99.90
2022-07-31T07:22:31.237Z,99.90
2022-07-31T07:25:01.090Z,99.90
2022-07-31T07:27:28.154Z,99.90
2022-07-31T07:29:55.610Z,99.90
2022-07-31T07:32:22.668Z,99.90
2022-07-31T07:34:49.561Z,99.90
2022-07-31T07:37:27.779Z,99.90
2022-07-31T07:39:54.763Z,99.90
2022-07-31T07:42:21.671Z,99.90
2022-07-31T07:44:48.646Z,99.90
2022-07-31T07:47:16.096Z,99.90
2022-07-31T07:49:43.147Z,99.90
2022-07-31T07:52:10.480Z,99.90
2022-07-31T07:54:37.662Z,99.90
2022-07-31T07:57:04.662Z,99.90
2022-07-31T07:59:31.706Z,99.90
2022-07-31T08:01:58.599Z,99.90
2022-07-31T08:04:25.511Z,99.90
2022-07-31T08:06:52.634Z,99.90
2022-07-31T08:09:21.145Z,99.90
2022-07-31T08:11:48.122Z,99.90
2022-07-31T08:14:15.350Z,99.90
2022-07-31T08:16:42.564Z,99.90
2022-07-31T08:19:09.590Z,99.90
2022-07-31T08:21:37.428Z,99.90
2022-07-31T08:24:04.840Z,99.90
2022-07-31T08:26:52.041Z,99.90
2022-07-31T08:29:19.179Z,99.90
2022-07-31T08:31:55.071Z,99.90
2022-07-31T08:34:30.649Z,99.90
2022-07-31T08:36:59.721Z,99.90
2022-07-31T08:39:50.851Z,99.90
2022-07-31T08:42:18.648Z,99.90
2022-07-31T08:44:46.859Z,99.90
2022-07-31T08:47:17.652Z,99.90
2022-07-31T08:49:47.222Z,99.90
2022-07-31T08:52:22.099Z,99.90
2022-07-31T08:54:52.235Z,99.90
2022-07-31T08:57:20.654Z,99.90
2022-07-31T08:59:52.309Z,99.90
2022-07-31T09:02:19.626Z,99.90
2022-07-31T09:04:52.109Z,98.80
2022-07-31T09:07:19.753Z,98.50
2022-07-31T09:09:51.682Z,98.30
2022-07-31T09:12:33.982Z,98.90
2022-07-31T09:15:01.489Z,99.30
2022-07-31T09:17:36.689Z,99.60
2022-07-31T09:20:05.757Z,99.00
2022-07-31T09:22:33.900Z,99.30
2022-07-31T09:25:15.974Z,99.50
2022-07-31T09:27:43.114Z,99.90
2022-07-31T09:30:10.687Z,99.40
2022-07-31T09:32:37.912Z,99.80
2022-07-31T09:35:13.835Z,98.60
2022-07-31T09:37:41.381Z,98.90
2022-07-31T09:40:09.470Z,99.20
2022-07-31T09:42:45.972Z,98.90
2022-07-31T09:45:24.240Z,98.50
2022-07-31T09:48:13.763Z,98.10
2022-07-31T09:51:00.068Z,99.90
2022-07-31T09:53:27.907Z,99.20
2022-07-31T09:55:58.311Z,98.40
2022-07-31T09:58:25.298Z,96.90
2022-07-31T10:00:56.543Z,96.20
2022-07-31T10:03:25.382Z,99.00
2022-07-31T10:05:55.325Z,94.40
2022-07-31T10:08:24.442Z,94.90
2022-07-31T10:10:51.822Z,94.30
2022-07-31T10:13:21.100Z,94.90
2022-07-31T10:15:51.931Z,93.00
2022-07-31T10:18:35.511Z,92.40
2022-07-31T10:21:07.157Z,93.50
2022-07-31T10:23:39.240Z,92.20
2022-07-31T10:26:07.805Z,91.70
2022-07-31T10:28:38.206Z,92.20
2022-07-31T10:31:06.159Z,92.40
2022-07-31T10:33:43.994Z,91.50
2022-07-31T10:36:18.728Z,91.50
2022-07-31T10:39:05.114Z,92.00
2022-07-31T10:42:26.953Z,91.10
2022-07-31T10:45:11.091Z,91.20
2022-07-31T10:47:38.415Z,92.00
2022-07-31T10:50:07.063Z,93.50
2022-07-31T10:52:37.958Z,90.30
2022-07-31T10:55:22.399Z,90.70
2022-07-31T10:57:57.288Z,90.10
2022-07-31T11:00:30.045Z,89.10
2022-07-31T11:02:57.631Z,89.20
2022-07-31T11:05:27.737Z,88.50
2022-07-31T11:08:07.813Z,88.20
2022-07-31T11:10:35.309Z,89.40
2022-07-31T11:13:12.896Z,88.80
2022-07-31T11:15:40.465Z,89.50
2022-07-31T11:18:22.601Z,89.00
2022-07-31T11:21:17.437Z,90.10
2022-07-31T11:23:55.990Z,89.70
2022-07-31T11:26:33.404Z,90.40
2022-07-31T11:29:58.735Z,89.70
2022-07-31T11:32:07.144Z,88.30
2022-07-31T11:34:51.066Z,89.50
2022-07-31T11:37:22.792Z,88.00
2022-07-31T11:39:53.755Z,88.50
2022-07-31T11:42:25.305Z,88.50
2022-07-31T11:45:02.399Z,87.40
2022-07-31T11:48:12.962Z,86.90
2022-07-31T11:50:42.987Z,86.80
2022-07-31T11:53:10.793Z,85.30
2022-07-31T11:56:10.492Z,85.40
2022-07-31T11:58:38.739Z,84.10
2022-07-31T12:01:05.793Z,86.30
2022-07-31T12:03:38.646Z,85.20
2022-07-31T12:06:08.309Z,84.50
2022-07-31T12:08:37.899Z,85.40
2022-07-31T12:11:08.220Z,85.90
2022-07-31T12:13:35.615Z,85.70
2022-07-31T12:16:09.719Z,85.40
2022-07-31T12:18:56.984Z,85.00
2022-07-31T12:21:33.412Z,85.40
2022-07-31T12:24:01.088Z,86.00
2022-07-31T12:26:32.047Z,86.10
2022-07-31T12:29:12.901Z,86.10
2022-07-31T12:31:54.397Z,84.40
2022-07-31T12:34:42.955Z,84.80
2022-07-31T12:37:13.264Z,86.40
2022-07-31T12:40:01.709Z,84.70
2022-07-31T12:42:40.808Z,86.60
2022-07-31T12:45:19.519Z,83.80
2022-07-31T12:47:52.092Z,80.50
2022-07-31T12:50:23.610Z,78.50
2022-07-31T12:52:50.915Z,79.10
2022-07-31T12:55:18.252Z,78.40
2022-07-31T12:57:50.375Z,77.00
2022-07-31T13:00:23.819Z,77.00
2022-07-31T13:02:56.691Z,77.60
2022-07-31T13:05:25.156Z,75.40
2022-07-31T13:07:52.649Z,75.40
2022-07-31T13:10:23.712Z,75.60
2022-07-31T13:12:52.776Z,74.70
2022-07-31T13:15:23.408Z,75.20
2022-07-31T13:17:51.211Z,75.90
2022-07-31T13:20:21.453Z,76.30
2022-07-31T13:22:49.463Z,74.50
2022-07-31T13:25:17.119Z,74.80
2022-07-31T13:27:44.209Z,73.30
2022-07-31T13:30:11.687Z,71.10
2022-07-31T13:32:38.620Z,72.80
2022-07-31T13:35:23.981Z,73.20
2022-07-31T13:38:00.960Z,74.00
2022-07-31T13:40:47.096Z,74.60
2022-07-31T13:43:14.451Z,74.30
2022-07-31T13:45:41.831Z,75.30
2022-07-31T13:48:10.092Z,73.80
2022-07-31T13:50:41.422Z,75.10
2022-07-31T13:53:09.416Z,72.90
2022-07-31T13:55:37.187Z,72.20
2022-07-31T13:58:04.509Z,71.20
2022-07-31T14:00:32.160Z,72.10
2022-07-31T14:02:59.387Z,71.70
2022-07-31T14:05:27.599Z,71.80
2022-07-31T14:07:56.135Z,72.90
2022-07-31T14:10:23.954Z,70.50
2022-07-31T14:12:51.230Z,68.30
2022-07-31T14:15:18.482Z,68.90
2022-07-31T14:17:45.995Z,69.80
2022-07-31T14:20:13.780Z,70.30
2022-07-31T14:22:42.199Z,68.00
2022-07-31T14:25:10.535Z,67.80
2022-07-31T14:27:38.718Z,68.80
2022-07-31T14:30:08.019Z,67.80
2022-07-31T14:32:35.280Z,68.60
2022-07-31T14:35:07.754Z,69.10
2022-07-31T14:37:36.775Z,67.30
2022-07-31T14:40:07.467Z,67.20
2022-07-31T14:42:34.712Z,67.00
2022-07-31T14:45:06.692Z,66.80
2022-07-31T14:47:38.655Z,67.30
2022-07-31T14:50:12.106Z,67.00
2022-07-31T14:52:40.810Z,66.80
2022-07-31T14:55:08.557Z,68.20
2022-07-31T14:57:35.752Z,65.80
2022-07-31T15:00:03.788Z,65.10
2022-07-31T15:02:30.864Z,66.50
2022-07-31T15:04:57.815Z,66.90
2022-07-31T15:07:46.951Z,65.50
2022-07-31T15:10:14.347Z,66.20
2022-07-31T15:12:41.424Z,66.80
2022-07-31T15:15:09.137Z,66.70
2022-07-31T15:17:36.097Z,67.20
2022-07-31T15:20:03.967Z,66.70
2022-07-31T15:22:30.925Z,66.00
2022-07-31T15:24:57.846Z,65.20
2022-07-31T15:27:25.085Z,65.20
2022-07-31T15:30:03.301Z,65.80
2022-07-31T15:32:38.732Z,66.20
2022-07-31T15:35:09.503Z,66.60
2022-07-31T15:37:38.593Z,66.10
2022-07-31T15:40:09.057Z,66.20
2022-07-31T15:42:40.598Z,66.10
2022-07-31T15:45:18.385Z,63.70
2022-07-31T15:47:46.763Z,63.30
2022-07-31T15:50:19.460Z,63.30
2022-07-31T15:52:47.653Z,65.30
2022-07-31T15:55:16.844Z,62.70
2022-07-31T15:57:43.994Z,64.40
2022-07-31T16:00:15.149Z,62.20
2022-07-31T16:02:43.209Z,61.60
2022-07-31T16:05:22.173Z,62.80
2022-07-31T16:08:32.246Z,62.80
2022-07-31T16:10:49.981Z,62.90
2022-07-31T16:13:19.539Z,63.40
2022-07-31T16:15:46.459Z,64.80
2022-07-31T16:18:18.437Z,64.70
2022-07-31T16:20:45.892Z,65.80
2022-07-31T16:23:12.931Z,65.70
2022-07-31T16:25:39.860Z,65.30
2022-07-31T16:28:06.826Z,64.90
2022-07-31T16:30:34.180Z,64.80
2022-07-31T16:33:01.403Z,64.20
2022-07-31T16:35:28.491Z,63.30
2022-07-31T16:37:55.633Z,64.30
2022-07-31T16:40:30.490Z,64.00
2022-07-31T16:43:48.237Z,63.30
2022-07-31T16:45:54.935Z,64.30
2022-07-31T16:48:22.483Z,64.50
2022-07-31T16:50:54.442Z,64.30
2022-07-31T16:54:10.504Z,64.70
2022-07-31T16:56:16.028Z,64.90
2022-07-31T16:58:44.451Z,66.00
2022-07-31T17:01:53.867Z,65.30
2022-07-31T17:04:04.002Z,65.50
2022-07-31T17:06:42.451Z,65.90
2022-07-31T17:09:15.230Z,65.00
2022-07-31T17:11:48.025Z,64.60
2022-07-31T17:14:19.455Z,64.80
2022-07-31T17:16:49.204Z,65.90
2022-07-31T17:19:41.621Z,67.20
2022-07-31T17:22:07.242Z,66.20
2022-07-31T17:24:37.368Z,66.40
2022-07-31T17:27:07.386Z,66.30
2022-07-31T17:29:35.220Z,65.90
2022-07-31T17:32:02.447Z,66.30
2022-07-31T17:34:29.580Z,66.60
2022-07-31T17:36:56.647Z,65.20
2022-07-31T17:39:26.185Z,65.80
2022-07-31T17:41:57.565Z,65.60
2022-07-31T17:44:24.762Z,65.20
2022-07-31T17:46:53.074Z,65.30
2022-07-31T17:49:20.921Z,65.30
2022-07-31T17:51:57.612Z,65.70
2022-07-31T17:54:30.763Z,64.80
2022-07-31T17:56:58.825Z,64.60
2022-07-31T17:59:26.957Z,65.10
2022-07-31T18:02:02.117Z,65.60
2022-07-31T18:04:31.612Z,66.00
2022-07-31T18:07:00.563Z,67.00
2022-07-31T18:09:28.923Z,67.70
2022-07-31T18:11:57.654Z,68.20
2022-07-31T18:14:25.084Z,69.30
2022-07-31T18:16:52.890Z,70.20
2022-07-31T18:19:21.810Z,71.00
2022-07-31T18:21:50.452Z,71.80
2022-07-31T18:24:17.576Z,72.40
2022-07-31T18:26:44.588Z,73.20
2022-07-31T18:29:11.699Z,73.60
2022-07-31T18:31:39.778Z,74.00
2022-07-31T18:34:07.313Z,75.00
2022-07-31T18:36:35.155Z,75.40
2022-07-31T18:39:03.770Z,75.80
2022-07-31T18:41:31.711Z,76.20
2022-07-31T18:43:59.033Z,76.70
2022-07-31T18:46:26.803Z,77.50
2022-07-31T18:48:55.967Z,77.40
2022-07-31T18:51:28.530Z,77.70
2022-07-31T18:53:56.178Z,78.50
2022-07-31T18:56:25.083Z,78.60
2022-07-31T18:58:53.014Z,79.00
2022-07-31T19:01:20.943Z,79.40
2022-07-31T19:03:48.176Z,79.80
2022-07-31T19:06:15.690Z,81.00
2022-07-31T19:08:42.720Z,81.00
2022-07-31T19:11:10.007Z,81.00
2022-07-31T19:13:36.930Z,81.10
2022-07-31T19:16:05.038Z,81.20
2022-07-31T19:18:33.068Z,81.30
2022-07-31T19:21:16.002Z,81.70
2022-07-31T19:23:48.603Z,81.80
2022-07-31T19:26:15.795Z,81.60
2022-07-31T19:28:43.424Z,81.60
2022-07-31T19:31:13.190Z,81.20
2022-07-31T19:33:40.502Z,81.30
2022-07-31T19:36:08.009Z,81.30
2022-07-31T19:38:39.673Z,81.50
2022-07-31T19:41:06.796Z,81.50
2022-07-31T19:43:33.774Z,81.70
2022-07-31T19:46:11.837Z,81.70
2022-07-31T19:48:46.563Z,81.80
2022-07-31T19:51:15.790Z,81.20
2022-07-31T19:53:43.708Z,80.90
2022-07-31T19:56:18.068Z,80.90
2022-07-31T19:58:48.087Z,81.30
2022-07-31T20:01:15.158Z,81.60
2022-07-31T20:03:42.693Z,81.90
2022-07-31T20:06:09.756Z,82.10
2022-07-31T20:08:36.903Z,82.30
2022-07-31T20:11:05.402Z,82.30
2022-07-31T20:13:34.804Z,82.60
2022-07-31T20:16:02.072Z,82.90
2022-07-31T20:18:30.390Z,83.10
2022-07-31T20:21:07.446Z,83.20
2022-07-31T20:23:38.570Z,83.50
2022-07-31T20:26:12.525Z,83.50
2022-07-31T20:28:40.433Z,83.70
2022-07-31T20:31:15.959Z,83.80
2022-07-31T20:33:57.462Z,84.00
2022-07-31T20:36:27.203Z,84.40
2022-07-31T20:38:55.107Z,84.80
2022-07-31T20:41:22.171Z,85.10
2022-07-31T20:43:49.277Z,85.50
2022-07-31T20:46:18.175Z,85.80
2022-07-31T20:48:45.390Z,86.10
2022-07-31T20:51:20.200Z,86.20
2022-07-31T20:53:51.541Z,86.50
2022-07-31T20:56:18.693Z,86.70
2022-07-31T20:58:51.415Z,86.90
2022-07-31T21:01:20.996Z,87.00
2022-07-31T21:03:49.102Z,87.20
2022-07-31T21:06:16.806Z,87.30
2022-07-31T21:08:43.801Z,87.70
2022-07-31T21:11:10.834Z,89.50
2022-07-31T21:13:38.209Z,90.20
2022-07-31T21:16:05.714Z,90.60
2022-07-31T21:18:34.956Z,91.00
2022-07-31T21:21:03.154Z,91.50
2022-07-31T21:23:30.259Z,91.80
2022-07-31T21:25:58.664Z,92.00
2022-07-31T21:28:27.499Z,92.10
2022-07-31T21:30:56.206Z,92.20
2022-07-31T21:33:25.739Z,92.40
2022-07-31T21:35:55.102Z,92.20
2022-07-31T21:38:22.119Z,92.20
2022-07-31T21:40:50.192Z,92.00
2022-07-31T21:43:22.185Z,92.10
2022-07-31T21:45:57.391Z,92.10
2022-07-31T21:48:31.053Z,92.20
2022-07-31T21:50:59.760Z,92.30
2022-07-31T21:53:27.009Z,92.50
2022-07-31T21:55:54.084Z,92.60
2022-07-31T21:58:21.125Z,93.10
2022-07-31T22:00:48.170Z,93.20
2022-07-31T22:03:15.292Z,93.50
2022-07-31T22:06:00.971Z,93.60
2022-07-31T22:08:28.054Z,93.80
2022-07-31T22:10:55.035Z,94.50
2022-07-31T22:13:22.110Z,94.60
2022-07-31T22:15:55.646Z,95.00
2022-07-31T22:18:33.004Z,95.30
2022-07-31T22:21:03.554Z,95.30
2022-07-31T22:23:31.219Z,95.60
2022-07-31T22:25:58.816Z,95.50
2022-07-31T22:28:26.909Z,95.70
2022-07-31T22:30:55.878Z,95.50
2022-07-31T22:33:23.516Z,95.40
2022-07-31T22:35:59.556Z,95.30
2022-07-31T22:38:29.873Z,95.30
2022-07-31T22:40:59.079Z,95.90
2022-07-31T22:44:10.711Z,96.10
2022-07-31T22:46:14.531Z,96.20
2022-07-31T22:48:41.645Z,96.50
2022-07-31T22:51:12.868Z,96.70
2022-07-31T22:53:41.640Z,97.20
2022-07-31T22:56:08.583Z,97.80
2022-07-31T22:58:35.623Z,98.20
2022-07-31T23:01:02.637Z,98.30
2022-07-31T23:03:29.677Z,98.50
2022-07-31T23:06:12.220Z,98.50
2022-07-31T23:08:43.606Z,98.50
2022-07-31T23:11:10.631Z,98.90
2022-07-31T23:13:37.572Z,99.10
2022-07-31T23:16:05.862Z,99.00
2022-07-31T23:18:32.841Z,99.00
2022-07-31T23:21:00.107Z,99.50
2022-07-31T23:23:27.190Z,99.90
2022-07-31T23:25:55.333Z,99.90
2022-07-31T23:28:22.280Z,99.90
2022-07-31T23:30:49.257Z,99.90
2022-07-31T23:33:16.943Z,99.90
2022-07-31T23:35:44.092Z,99.90
2022-07-31T23:38:11.122Z,99.90
2022-07-31T23:40:38.250Z,99.90
2022-07-31T23:43:05.657Z,99.90
2022-07-31T23:45:32.784Z,99.90
2022-07-31T23:47:59.871Z,99.90
2022-07-31T23:50:26.985Z,99.90
2022-07-31T23:52:53.982Z,99.90
2022-07-31T23:55:21.405Z,99.90
2022-07-31T23:57:48.558Z,99.90
